createdAt,value
2023-05-10T00:00:06.024Z,99.90
2023-05-10T00:03:00.307Z,99.90
2023-05-10T00:05:28.049Z,99.90
2023-05-10T00:07:55.211Z,99.90
2023-05-10T00:10:22.828Z,99.90
2023-05-10T00:12:50.021Z,99.90
2023-05-10T00:15:17.573Z,99.90
2023-05-10T00:17:44.812Z,99.90
2023-05-10T00:20:12.564Z,99.90
2023-05-10T00:22:39.797Z,99.90
2023-05-10T00:25:08.668Z,99.90
2023-05-10T00:27:35.772Z,99.90
2023-05-10T00:30:03.398Z,99.90
2023-05-10T00:32:30.718Z,99.90
2023-05-10T00:34:59.373Z,99.90
2023-05-10T00:37:27.797Z,99.90
2023-05-10T00:39:56.167Z,99.90
2023-05-10T00:42:23.438Z,99.90
2023-05-10T00:44:53.689Z,99.90
2023-05-10T00:47:20.937Z,99.90
2023-05-10T00:49:48.652Z,99.90
2023-05-10T00:52:16.191Z,99.90
2023-05-10T00:54:43.930Z,99.90
2023-05-10T00:57:12.188Z,99.90
2023-05-10T00:59:39.640Z,99.90
2023-05-10T01:02:07.983Z,99.90
2023-05-10T01:04:36.700Z,99.90
2023-05-10T01:07:04.212Z,99.90
2023-05-10T01:09:32.651Z,99.90
2023-05-10T01:12:00.910Z,99.90
2023-05-10T01:14:31.096Z,99.90
2023-05-10T01:16:58.362Z,99.90
2023-05-10T01:19:30.496Z,99.90
2023-05-10T01:22:55.561Z,99.90
2023-05-10T01:25:45.141Z,99.90
2023-05-10T01:28:59.311Z,99.90
2023-05-10T01:31:48.332Z,99.90
2023-05-10T01:34:28.373Z,99.90
2023-05-10T01:37:11.726Z,99.90
2023-05-10T01:39:59.149Z,99.90
2023-05-10T01:42:41.940Z,99.90
2023-05-10T01:45:26.569Z,99.90
2023-05-10T01:48:15.832Z,99.90
2023-05-10T01:50:47.441Z,99.90
2023-05-10T01:53:21.377Z,99.90
2023-05-10T01:55:53.606Z,99.90
2023-05-10T01:58:34.672Z,99.90
2023-05-10T02:01:07.357Z,99.90
2023-05-10T02:03:40.670Z,99.90
2023-05-10T02:06:10.520Z,99.90
2023-05-10T02:08:40.756Z,99.90
2023-05-10T02:11:10.097Z,99.90
2023-05-10T02:13:40.355Z,99.90
2023-05-10T02:16:09.258Z,99.90
2023-05-10T02:18:37.744Z,99.90
2023-05-10T02:21:06.053Z,99.90
2023-05-10T02:23:34.943Z,99.90
2023-05-10T02:26:04.715Z,99.90
2023-05-10T02:28:33.889Z,99.90
2023-05-10T02:31:03.351Z,99.90
2023-05-10T02:33:33.030Z,99.90
2023-05-10T02:36:02.326Z,99.90
2023-05-10T02:38:33.447Z,99.90
2023-05-10T02:41:02.370Z,99.90
2023-05-10T02:43:33.224Z,99.90
2023-05-10T02:46:00.981Z,99.90
2023-05-10T02:48:29.598Z,99.90
2023-05-10T02:51:06.188Z,99.90
2023-05-10T02:53:39.578Z,99.90
2023-05-10T02:56:21.043Z,99.90
2023-05-10T02:58:48.943Z,99.90
2023-05-10T03:01:16.544Z,99.90
2023-05-10T03:03:44.047Z,99.90
2023-05-10T03:06:11.387Z,99.90
2023-05-10T03:08:39.571Z,99.90
2023-05-10T03:11:48.226Z,99.90
2023-05-10T03:14:33.972Z,99.90
2023-05-10T03:17:40.125Z,99.90
2023-05-10T03:20:17.859Z,99.90
2023-05-10T03:23:29.179Z,99.90
2023-05-10T03:25:57.432Z,99.90
2023-05-10T03:28:29.191Z,99.90
2023-05-10T03:30:58.454Z,99.90
2023-05-10T03:33:26.048Z,99.90
2023-05-10T03:35:54.277Z,99.90
2023-05-10T03:38:21.414Z,99.90
2023-05-10T03:40:48.844Z,99.90
2023-05-10T03:43:16.053Z,99.90
2023-05-10T03:45:43.572Z,99.90
2023-05-10T03:48:10.988Z,99.90
2023-05-10T03:50:38.542Z,99.90
2023-05-10T03:53:05.720Z,99.90
2023-05-10T03:55:37.001Z,99.90
2023-05-10T03:58:04.276Z,99.90
2023-05-10T04:00:32.483Z,99.90
2023-05-10T04:03:01.746Z,99.90
2023-05-10T04:05:29.611Z,99.90
2023-05-10T04:07:56.870Z,99.90
2023-05-10T04:10:24.211Z,99.90
2023-05-10T04:12:51.663Z,99.90
2023-05-10T04:15:19.350Z,99.90
2023-05-10T04:17:46.709Z,99.90
2023-05-10T04:20:14.949Z,99.90
2023-05-10T04:22:42.255Z,99.90
2023-05-10T04:25:10.255Z,99.90
2023-05-10T04:27:38.132Z,99.90
2023-05-10T04:30:06.776Z,99.90
2023-05-10T04:32:34.300Z,99.90
2023-05-10T04:35:05.698Z,99.90
2023-05-10T04:37:32.905Z,99.90
2023-05-10T04:40:00.970Z,99.90
2023-05-10T04:42:28.306Z,99.90
2023-05-10T04:44:55.790Z,99.90
2023-05-10T04:47:22.930Z,99.90
2023-05-10T04:49:50.433Z,99.90
2023-05-10T04:52:18.912Z,99.90
2023-05-10T04:54:46.432Z,99.90
2023-05-10T04:57:13.671Z,99.90
2023-05-10T04:59:40.976Z,99.90
2023-05-10T05:02:08.396Z,99.90
2023-05-10T05:04:35.835Z,99.90
2023-05-10T05:07:02.995Z,99.90
2023-05-10T05:09:30.417Z,99.90
2023-05-10T05:11:57.597Z,99.90
2023-05-10T05:14:26.328Z,99.90
2023-05-10T05:16:53.917Z,99.90
2023-05-10T05:19:21.721Z,99.90
2023-05-10T05:21:48.883Z,99.90
2023-05-10T05:24:16.262Z,99.90
2023-05-10T05:26:43.444Z,99.90
2023-05-10T05:29:10.920Z,99.90
2023-05-10T05:31:38.085Z,99.90
2023-05-10T05:34:05.599Z,99.90
2023-05-10T05:36:32.756Z,99.90
2023-05-10T05:39:00.061Z,99.90
2023-05-10T05:41:27.503Z,99.90
2023-05-10T05:43:54.969Z,99.90
2023-05-10T05:46:22.171Z,99.90
2023-05-10T05:48:49.666Z,99.90
2023-05-10T05:51:17.097Z,99.90
2023-05-10T05:53:44.277Z,99.90
2023-05-10T05:56:11.761Z,99.90
2023-05-10T05:58:38.810Z,99.90
2023-05-10T06:01:06.344Z,99.90
2023-05-10T06:03:33.794Z,99.90
2023-05-10T06:06:01.376Z,99.90
2023-05-10T06:08:28.432Z,99.90
2023-05-10T06:10:55.858Z,99.90
2023-05-10T06:13:23.063Z,99.90
2023-05-10T06:15:50.492Z,99.90
2023-05-10T06:18:17.724Z,99.90
2023-05-10T06:20:45.226Z,99.90
2023-05-10T06:23:12.353Z,99.90
2023-05-10T06:25:39.848Z,99.90
2023-05-10T06:28:07.011Z,99.90
2023-05-10T06:30:34.449Z,99.90
2023-05-10T06:33:01.774Z,99.90
2023-05-10T06:35:30.073Z,99.90
2023-05-10T06:37:57.137Z,99.90
2023-05-10T06:40:24.630Z,99.80
2023-05-10T06:42:52.150Z,99.60
2023-05-10T06:45:20.028Z,99.20
2023-05-10T06:47:47.487Z,99.10
2023-05-10T06:50:15.078Z,99.20
2023-05-10T06:52:42.262Z,98.70
2023-05-10T06:55:10.562Z,98.00
2023-05-10T06:57:37.756Z,97.90
2023-05-10T07:00:07.175Z,97.90
2023-05-10T07:02:34.564Z,97.50
2023-05-10T07:05:03.580Z,96.40
2023-05-10T07:07:31.071Z,96.20
2023-05-10T07:09:58.970Z,95.90
2023-05-10T07:12:26.431Z,95.40
2023-05-10T07:14:54.064Z,95.40
2023-05-10T07:17:21.343Z,94.90
2023-05-10T07:19:48.766Z,95.20
2023-05-10T07:22:18.740Z,95.10
2023-05-10T07:24:46.544Z,95.40
2023-05-10T07:27:14.054Z,91.70
2023-05-10T07:29:41.617Z,94.20
2023-05-10T07:32:09.014Z,92.80
2023-05-10T07:34:36.551Z,93.80
2023-05-10T07:37:03.754Z,93.10
2023-05-10T07:39:31.137Z,93.30
2023-05-10T07:41:58.394Z,92.30
2023-05-10T07:44:25.788Z,91.50
2023-05-10T07:46:53.384Z,92.60
2023-05-10T07:49:20.890Z,91.40
2023-05-10T07:51:48.131Z,90.60
2023-05-10T07:54:15.662Z,92.20
2023-05-10T07:56:46.614Z,91.10
2023-05-10T07:59:18.758Z,91.50
2023-05-10T08:01:46.243Z,91.40
2023-05-10T08:04:13.868Z,91.00
2023-05-10T08:06:41.940Z,91.30
2023-05-10T08:09:10.317Z,91.40
2023-05-10T08:11:37.612Z,87.70
2023-05-10T08:14:05.036Z,89.30
2023-05-10T08:16:33.460Z,90.60
2023-05-10T08:19:01.161Z,88.60
2023-05-10T08:21:28.495Z,86.80
2023-05-10T08:23:55.850Z,90.90
2023-05-10T08:26:23.088Z,85.90
2023-05-10T08:28:50.595Z,85.90
2023-05-10T08:31:17.892Z,87.90
2023-05-10T08:33:45.615Z,89.20
2023-05-10T08:36:15.213Z,84.50
2023-05-10T08:38:42.633Z,85.60
2023-05-10T08:41:11.602Z,81.40
2023-05-10T08:43:39.905Z,80.10
2023-05-10T08:46:10.329Z,79.80
2023-05-10T08:48:39.845Z,78.40
2023-05-10T08:51:09.112Z,81.40
2023-05-10T08:53:38.529Z,80.30
2023-05-10T08:56:06.495Z,80.20
2023-05-10T08:58:34.427Z,81.60
2023-05-10T09:01:02.353Z,79.10
2023-05-10T09:03:29.574Z,82.20
2023-05-10T09:05:57.466Z,77.10
2023-05-10T09:08:29.049Z,73.90
2023-05-10T09:10:57.441Z,77.20
2023-05-10T09:13:25.805Z,78.80
2023-05-10T09:15:54.596Z,77.90
2023-05-10T09:18:21.806Z,77.40
2023-05-10T09:20:50.366Z,75.00
2023-05-10T09:23:17.566Z,68.80
2023-05-10T09:25:45.132Z,68.20
2023-05-10T09:28:13.349Z,73.40
2023-05-10T09:30:41.271Z,66.90
2023-05-10T09:33:08.862Z,69.50
2023-05-10T09:35:37.023Z,67.30
2023-05-10T09:38:06.374Z,73.00
2023-05-10T09:40:33.899Z,65.00
2023-05-10T09:43:05.352Z,66.40
2023-05-10T09:45:38.186Z,71.60
2023-05-10T09:48:06.958Z,70.00
2023-05-10T09:50:35.249Z,71.10
2023-05-10T09:53:04.871Z,71.60
2023-05-10T09:55:50.138Z,66.40
2023-05-10T09:58:17.410Z,70.00
2023-05-10T10:00:48.645Z,64.20
2023-05-10T10:03:21.279Z,65.30
2023-05-10T10:05:49.887Z,67.30
2023-05-10T10:08:18.918Z,70.40
2023-05-10T10:10:47.795Z,67.20
2023-05-10T10:13:16.372Z,65.40
2023-05-10T10:15:45.569Z,65.60
2023-05-10T10:18:16.510Z,67.40
2023-05-10T10:20:44.371Z,68.40
2023-05-10T10:23:11.507Z,65.40
2023-05-10T10:25:39.938Z,69.90
2023-05-10T10:28:40.236Z,64.60
2023-05-10T10:31:41.759Z,65.70
2023-05-10T10:34:30.900Z,66.60
2023-05-10T10:37:04.509Z,66.80
2023-05-10T10:39:32.370Z,70.00
2023-05-10T10:42:00.889Z,70.30
2023-05-10T10:44:35.865Z,69.90
2023-05-10T10:47:12.924Z,69.40
2023-05-10T10:49:49.108Z,63.90
2023-05-10T10:52:34.134Z,66.00
2023-05-10T10:55:13.558Z,63.80
2023-05-10T10:57:49.597Z,66.30
2023-05-10T11:00:34.178Z,62.60
2023-05-10T11:03:15.745Z,66.30
2023-05-10T11:05:47.901Z,68.20
2023-05-10T11:08:31.342Z,66.40
2023-05-10T11:11:01.352Z,67.20
2023-05-10T11:13:51.128Z,63.50
2023-05-10T11:16:19.806Z,67.10
2023-05-10T11:19:04.414Z,68.60
2023-05-10T11:21:33.704Z,65.80
2023-05-10T11:24:06.817Z,66.60
2023-05-10T11:26:36.733Z,64.20
2023-05-10T11:29:05.852Z,66.90
2023-05-10T11:31:33.946Z,64.80
2023-05-10T11:34:02.822Z,66.60
2023-05-10T11:36:39.247Z,64.40
2023-05-10T11:39:07.085Z,64.60
2023-05-10T11:41:34.349Z,66.30
2023-05-10T11:44:02.726Z,66.00
2023-05-10T11:46:30.177Z,67.60
2023-05-10T11:49:05.504Z,66.80
2023-05-10T11:51:40.340Z,67.30
2023-05-10T11:54:10.643Z,67.40
2023-05-10T11:56:42.127Z,70.10
2023-05-10T11:59:09.736Z,66.70
2023-05-10T12:01:37.645Z,65.80
2023-05-10T12:04:05.480Z,69.60
2023-05-10T12:06:41.355Z,67.40
2023-05-10T12:09:09.634Z,63.50
2023-05-10T12:11:43.612Z,67.10
2023-05-10T12:14:12.250Z,64.40
2023-05-10T12:16:39.451Z,68.70
2023-05-10T12:19:06.865Z,68.90
2023-05-10T12:21:34.405Z,66.30
2023-05-10T12:24:08.103Z,67.00
2023-05-10T12:26:37.240Z,70.00
2023-05-10T12:29:21.222Z,69.50
2023-05-10T12:31:56.842Z,71.80
2023-05-10T12:34:33.867Z,71.50
2023-05-10T12:37:02.573Z,70.20
2023-05-10T12:39:43.652Z,66.40
2023-05-10T12:42:11.775Z,66.60
2023-05-10T12:44:40.797Z,68.90
2023-05-10T12:47:08.347Z,71.30
2023-05-10T12:49:35.941Z,67.50
2023-05-10T12:52:03.344Z,69.10
2023-05-10T12:54:30.879Z,64.40
2023-05-10T12:56:58.051Z,66.10
2023-05-10T12:59:25.393Z,67.10
2023-05-10T13:01:52.685Z,65.90
2023-05-10T13:04:20.151Z,70.00
2023-05-10T13:06:47.349Z,67.50
2023-05-10T13:09:14.760Z,68.60
2023-05-10T13:11:42.822Z,68.80
2023-05-10T13:14:10.384Z,65.90
2023-05-10T13:16:37.697Z,70.10
2023-05-10T13:19:05.199Z,68.90
2023-05-10T13:21:32.384Z,65.60
2023-05-10T13:24:00.982Z,70.90
2023-05-10T13:26:29.040Z,68.00
2023-05-10T13:28:56.734Z,69.50
2023-05-10T13:31:24.121Z,70.20
2023-05-10T13:33:51.996Z,65.30
2023-05-10T13:36:19.119Z,64.40
2023-05-10T13:38:46.627Z,67.20
2023-05-10T13:41:13.854Z,66.40
2023-05-10T13:43:41.330Z,68.10
2023-05-10T13:46:08.831Z,70.00
2023-05-10T13:48:39.188Z,68.50
2023-05-10T13:51:06.686Z,69.50
2023-05-10T13:53:34.321Z,67.90
2023-05-10T13:56:39.006Z,65.50
2023-05-10T13:59:06.573Z,68.50
2023-05-10T14:01:33.779Z,69.60
2023-05-10T14:04:02.588Z,66.70
2023-05-10T14:06:29.941Z,69.50
2023-05-10T14:08:57.470Z,67.30
2023-05-10T14:11:24.893Z,66.90
2023-05-10T14:13:52.398Z,68.90
2023-05-10T14:16:21.116Z,70.30
2023-05-10T14:18:48.697Z,69.00
2023-05-10T14:21:16.430Z,72.00
2023-05-10T14:23:43.861Z,71.30
2023-05-10T14:26:11.107Z,72.80
2023-05-10T14:28:38.722Z,72.00
2023-05-10T14:31:06.487Z,69.60
2023-05-10T14:33:34.053Z,72.30
2023-05-10T14:36:02.239Z,72.60
2023-05-10T14:38:29.720Z,70.50
2023-05-10T14:40:56.926Z,69.30
2023-05-10T14:43:25.784Z,73.90
2023-05-10T14:45:52.927Z,70.50
2023-05-10T14:48:22.159Z,71.20
2023-05-10T14:50:50.780Z,72.20
2023-05-10T14:53:36.639Z,72.80
2023-05-10T14:56:04.083Z,72.80
2023-05-10T14:58:33.999Z,72.80
2023-05-10T15:01:03.976Z,73.50
2023-05-10T15:03:32.161Z,70.80
2023-05-10T15:05:59.900Z,74.60
2023-05-10T15:08:27.483Z,71.60
2023-05-10T15:10:56.565Z,70.80
2023-05-10T15:13:24.098Z,71.50
2023-05-10T15:15:51.401Z,73.10
2023-05-10T15:18:18.865Z,71.00
2023-05-10T15:20:45.965Z,71.90
2023-05-10T15:23:13.572Z,73.60
2023-05-10T15:25:40.992Z,73.60
2023-05-10T15:28:08.394Z,74.50
2023-05-10T15:30:35.564Z,72.60
2023-05-10T15:33:03.244Z,74.20
2023-05-10T15:35:30.452Z,72.40
2023-05-10T15:37:57.924Z,73.20
2023-05-10T15:40:25.027Z,73.10
2023-05-10T15:42:52.388Z,72.80
2023-05-10T15:45:19.965Z,72.90
2023-05-10T15:47:47.504Z,74.10
2023-05-10T15:50:16.935Z,73.10
2023-05-10T15:52:44.329Z,72.50
2023-05-10T15:55:14.693Z,72.70
2023-05-10T15:57:44.162Z,73.40
2023-05-10T16:00:13.652Z,72.50
2023-05-10T16:02:42.033Z,73.20
2023-05-10T16:05:10.193Z,73.20
2023-05-10T16:07:37.282Z,73.60
2023-05-10T16:10:06.544Z,73.20
2023-05-10T16:12:33.848Z,73.10
2023-05-10T16:15:01.779Z,72.70
2023-05-10T16:17:29.003Z,74.40
2023-05-10T16:19:56.660Z,74.30
2023-05-10T16:22:28.683Z,75.30
2023-05-10T16:24:58.023Z,76.40
2023-05-10T16:27:28.494Z,76.10
2023-05-10T16:29:56.367Z,73.20
2023-05-10T16:32:23.683Z,75.80
2023-05-10T16:34:53.248Z,74.20
2023-05-10T16:37:20.809Z,74.50
2023-05-10T16:39:48.550Z,74.20
2023-05-10T16:42:15.666Z,75.90
2023-05-10T16:44:43.072Z,75.20
2023-05-10T16:47:10.228Z,74.50
2023-05-10T16:49:37.677Z,74.30
2023-05-10T16:52:04.939Z,73.30
2023-05-10T16:54:32.301Z,76.40
2023-05-10T16:56:59.690Z,73.50
2023-05-10T16:59:27.203Z,75.50
2023-05-10T17:01:54.968Z,76.30
2023-05-10T17:04:22.429Z,75.50
2023-05-10T17:06:49.551Z,74.90
2023-05-10T17:09:17.032Z,75.00
2023-05-10T17:11:44.087Z,75.40
2023-05-10T17:14:11.437Z,76.20
2023-05-10T17:16:38.830Z,75.60
2023-05-10T17:19:06.387Z,76.20
2023-05-10T17:21:33.497Z,76.00
2023-05-10T17:24:00.963Z,77.00
2023-05-10T17:26:29.689Z,77.10
2023-05-10T17:28:58.146Z,77.50
2023-05-10T17:31:25.330Z,76.60
2023-05-10T17:33:53.345Z,78.30
2023-05-10T17:36:20.475Z,76.40
2023-05-10T17:38:47.991Z,78.00
2023-05-10T17:41:15.238Z,75.60
2023-05-10T17:43:42.932Z,77.40
2023-05-10T17:46:12.853Z,75.40
2023-05-10T17:48:40.388Z,77.40
2023-05-10T17:51:07.644Z,77.70
2023-05-10T17:53:38.239Z,77.80
2023-05-10T17:56:05.915Z,76.40
2023-05-10T17:58:33.426Z,76.90
2023-05-10T18:01:00.806Z,77.10
2023-05-10T18:03:28.758Z,77.10
2023-05-10T18:05:56.113Z,79.10
2023-05-10T18:08:26.894Z,77.90
2023-05-10T18:10:54.373Z,79.90
2023-05-10T18:13:22.189Z,78.00
2023-05-10T18:15:49.703Z,78.10
2023-05-10T18:18:17.450Z,79.50
2023-05-10T18:20:46.202Z,78.40
2023-05-10T18:23:14.225Z,78.60
2023-05-10T18:25:41.379Z,79.70
2023-05-10T18:28:08.772Z,80.50
2023-05-10T18:30:36.000Z,80.10
2023-05-10T18:33:03.843Z,79.90
2023-05-10T18:35:31.270Z,80.10
2023-05-10T18:37:59.117Z,79.90
2023-05-10T18:40:27.618Z,80.40
2023-05-10T18:42:54.959Z,80.70
2023-05-10T18:45:22.066Z,80.10
2023-05-10T18:47:49.577Z,80.90
2023-05-10T18:50:17.627Z,81.20
2023-05-10T18:52:45.531Z,82.60
2023-05-10T18:55:12.770Z,83.30
2023-05-10T18:57:43.037Z,83.30
2023-05-10T19:00:12.381Z,82.60
2023-05-10T19:02:41.352Z,82.40
2023-05-10T19:05:09.532Z,82.50
2023-05-10T19:07:37.003Z,82.80
2023-05-10T19:10:04.718Z,83.20
2023-05-10T19:12:32.147Z,84.00
2023-05-10T19:14:59.344Z,83.40
2023-05-10T19:17:26.717Z,83.70
2023-05-10T19:19:54.341Z,83.70
2023-05-10T19:22:36.145Z,84.40
2023-05-10T19:25:09.485Z,84.50
2023-05-10T19:27:36.968Z,84.00
2023-05-10T19:30:05.322Z,84.60
2023-05-10T19:32:32.823Z,85.30
2023-05-10T19:35:00.434Z,85.60
2023-05-10T19:37:28.001Z,86.70
2023-05-10T19:39:55.330Z,86.60
2023-05-10T19:42:22.679Z,86.20
2023-05-10T19:44:50.662Z,87.40
2023-05-10T19:47:18.043Z,87.40
2023-05-10T19:49:45.379Z,88.00
2023-05-10T19:52:12.761Z,88.40
2023-05-10T19:54:39.948Z,89.30
2023-05-10T19:57:07.423Z,89.00
2023-05-10T19:59:34.569Z,89.50
2023-05-10T20:02:01.922Z,89.20
2023-05-10T20:04:29.170Z,88.90
2023-05-10T20:06:56.502Z,88.70
2023-05-10T20:09:23.693Z,89.10
2023-05-10T20:11:51.125Z,90.00
2023-05-10T20:14:18.571Z,90.30
2023-05-10T20:16:46.200Z,90.30
2023-05-10T20:19:13.558Z,90.40
2023-05-10T20:21:41.075Z,91.00
2023-05-10T20:24:09.301Z,90.50
2023-05-10T20:26:36.650Z,90.70
2023-05-10T20:29:07.382Z,90.80
2023-05-10T20:31:34.897Z,91.40
2023-05-10T20:34:02.287Z,91.40
2023-05-10T20:36:30.143Z,91.20
2023-05-10T20:38:57.237Z,91.80
2023-05-10T20:41:25.909Z,91.50
2023-05-10T20:43:53.009Z,91.50
2023-05-10T20:46:20.514Z,91.40
2023-05-10T20:48:47.588Z,91.40
2023-05-10T20:51:15.500Z,91.50
2023-05-10T20:53:42.536Z,91.40
2023-05-10T20:56:10.316Z,91.50
2023-05-10T20:58:37.412Z,91.00
2023-05-10T21:01:05.208Z,90.60
2023-05-10T21:03:32.724Z,90.20
2023-05-10T21:06:00.219Z,90.00
2023-05-10T21:08:29.265Z,89.60
2023-05-10T21:10:56.694Z,89.40
2023-05-10T21:13:23.799Z,89.40
2023-05-10T21:15:51.155Z,89.10
2023-05-10T21:18:18.390Z,88.90
2023-05-10T21:20:45.795Z,88.80
2023-05-10T21:23:12.887Z,89.40
2023-05-10T21:25:40.265Z,88.90
2023-05-10T21:28:07.522Z,89.30
2023-05-10T21:30:34.868Z,89.60
2023-05-10T21:33:03.785Z,89.60
2023-05-10T21:35:31.500Z,89.50
2023-05-10T21:37:58.568Z,89.40
2023-05-10T21:40:25.925Z,89.40
2023-05-10T21:42:53.204Z,89.30
2023-05-10T21:45:20.917Z,89.30
2023-05-10T21:47:48.124Z,89.30
2023-05-10T21:50:15.721Z,89.30
2023-05-10T21:52:42.928Z,89.40
2023-05-10T21:55:10.431Z,89.60
2023-05-10T21:57:37.455Z,89.80
2023-05-10T22:00:06.809Z,89.90
2023-05-10T22:02:33.988Z,90.10
2023-05-10T22:05:03.523Z,90.10
2023-05-10T22:07:32.092Z,90.10
2023-05-10T22:09:59.674Z,90.10
2023-05-10T22:12:26.964Z,90.20
2023-05-10T22:15:09.128Z,90.30
2023-05-10T22:17:38.624Z,90.40
2023-05-10T22:20:08.418Z,90.70
2023-05-10T22:22:36.622Z,91.80
2023-05-10T22:25:07.582Z,92.70
2023-05-10T22:27:35.087Z,94.10
2023-05-10T22:30:04.095Z,95.00
2023-05-10T22:32:32.854Z,94.00
2023-05-10T22:35:00.275Z,93.40
2023-05-10T22:37:27.616Z,93.40
2023-05-10T22:39:55.355Z,92.60
2023-05-10T22:42:22.586Z,92.50
2023-05-10T22:44:49.901Z,92.20
2023-05-10T22:47:17.239Z,92.00
2023-05-10T22:49:44.568Z,91.80
2023-05-10T22:52:12.704Z,91.60
2023-05-10T22:54:40.079Z,91.50
2023-05-10T22:57:07.660Z,91.50
2023-05-10T22:59:35.063Z,91.50
2023-05-10T23:02:03.139Z,91.50
2023-05-10T23:04:30.655Z,91.50
2023-05-10T23:06:57.859Z,91.50
2023-05-10T23:09:25.290Z,91.80
2023-05-10T23:11:52.432Z,91.90
2023-05-10T23:14:19.758Z,91.60
2023-05-10T23:16:47.118Z,91.70
2023-05-10T23:19:14.557Z,91.70
2023-05-10T23:21:41.645Z,91.80
2023-05-10T23:24:09.161Z,91.80
2023-05-10T23:26:37.164Z,91.70
2023-05-10T23:29:04.587Z,91.70
2023-05-10T23:31:31.975Z,91.90
2023-05-10T23:33:59.565Z,91.70
2023-05-10T23:36:26.784Z,91.70
2023-05-10T23:38:54.123Z,91.90
2023-05-10T23:41:21.429Z,91.80
2023-05-10T23:43:48.725Z,92.00
2023-05-10T23:46:16.090Z,91.80
2023-05-10T23:48:43.457Z,91.80
2023-05-10T23:51:10.524Z,91.90
2023-05-10T23:53:37.939Z,91.90
2023-05-10T23:56:05.491Z,91.90
2023-05-10T23:58:33.018Z,92.00
